WMT2095 LRTR-LIRN
Flight info
| Callsign | WMT2095 |
|---|---|
| Flight time | 1h 13m |
| Altitude | 36000 |
| Route | MAVIT DCT OSLUD DCT AIOSA DCT TOPNO DCT DOGUS DCT EKTOL |
| Aircraft | A320/M-SDE3FGHIRWY/LB1 |
Departure
| Time | 2026-05-04 17:26 |
|---|---|
| Airport | Timișoara Traian Vuia International Airport (LRTR) |
Arrival
| Time | 2026-05-04 18:39 |
|---|---|
| Airport | Naples International Airport (LIRN) |
| Time | Latitude | Longitude | Altitude | Speed | Heading |
|---|---|---|---|---|---|
| 2026-05-04 17:07 | 45.81080 | 21.32082 | 350 ft | 0 kts | 200° |
| 2026-05-04 17:17 | 45.81106 | 21.32101 | 347 ft | 4 kts | 226° |
| 2026-05-04 17:18 | 45.81118 | 21.32130 | 348 ft | 4 kts | 275° |
| 2026-05-04 17:18 | 45.81115 | 21.32149 | 346 ft | 0 kts | 290° |
| 2026-05-04 17:21 | 45.81121 | 21.32127 | 347 ft | 4 kts | 290° |
| 2026-05-04 17:21 | 45.81166 | 21.31980 | 344 ft | 11 kts | 288° |
| 2026-05-04 17:22 | 45.81192 | 21.31868 | 345 ft | 13 kts | 289° |
| 2026-05-04 17:22 | 45.81225 | 21.31734 | 347 ft | 15 kts | 289° |
| 2026-05-04 17:23 | 45.81381 | 21.31610 | 341 ft | 0 kts | 20° |
| 2026-05-04 17:23 | 45.81383 | 21.31611 | 341 ft | 2 kts | 20° |
| 2026-05-04 17:24 | 45.81418 | 21.31630 | 341 ft | 9 kts | 20° |
| 2026-05-04 17:24 | 45.81482 | 21.31797 | 338 ft | 26 kts | 110° |
| 2026-05-04 17:25 | 45.81337 | 21.32375 | 351 ft | 94 kts | 109° |
| 2026-05-04 17:25 | 45.80671 | 21.35049 | 528 ft | 171 kts | 110° |
| 2026-05-04 17:26 | 45.79859 | 21.38216 | 1735 ft | 173 kts | 110° |
| 2026-05-04 17:26 | 45.78188 | 21.43596 | 2963 ft | 210 kts | 138° |
| 2026-05-04 17:27 | 45.75464 | 21.44565 | 3960 ft | 218 kts | 190° |
| 2026-05-04 17:27 | 45.72184 | 21.43678 | 4720 ft | 260 kts | 191° |
| 2026-05-04 17:28 | 45.68573 | 21.42677 | 6388 ft | 269 kts | 189° |
| 2026-05-04 17:29 | 45.62926 | 21.41148 | 8718 ft | 284 kts | 189° |
| 2026-05-04 17:29 | 45.56863 | 21.39523 | 10502 ft | 317 kts | 189° |
| 2026-05-04 17:30 | 45.49919 | 21.37681 | 11905 ft | 351 kts | 189° |
| 2026-05-04 17:31 | 45.45093 | 21.36398 | 13201 ft | 360 kts | 189° |
| 2026-05-04 17:31 | 45.37579 | 21.34417 | 14986 ft | 371 kts | 189° |
| 2026-05-04 17:32 | 45.32452 | 21.33070 | 16131 ft | 378 kts | 189° |
| 2026-05-04 17:33 | 45.24731 | 21.30274 | 17827 ft | 390 kts | 206° |
| 2026-05-04 17:33 | 45.22433 | 21.28216 | 18378 ft | 393 kts | 219° |
| 2026-05-04 17:34 | 45.16680 | 21.19862 | 19960 ft | 400 kts | 227° |
| 2026-05-04 17:34 | 45.14761 | 21.16999 | 20477 ft | 403 kts | 227° |
| 2026-05-04 17:35 | 45.08907 | 21.08305 | 21909 ft | 411 kts | 227° |
| 2026-05-04 17:35 | 45.04959 | 21.02456 | 22831 ft | 416 kts | 227° |
| 2026-05-04 17:35 | 45.02952 | 20.99493 | 23298 ft | 419 kts | 227° |
| 2026-05-04 17:36 | 45.00929 | 20.96505 | 23739 ft | 422 kts | 228° |
| 2026-05-04 17:36 | 44.98894 | 20.93500 | 24113 ft | 425 kts | 228° |
| 2026-05-04 17:36 | 44.96846 | 20.90474 | 24499 ft | 427 kts | 228° |
| 2026-05-04 17:36 | 44.94788 | 20.87433 | 24876 ft | 430 kts | 228° |
| 2026-05-04 17:37 | 44.92718 | 20.84379 | 25251 ft | 432 kts | 228° |
| 2026-05-04 17:37 | 44.90663 | 20.81348 | 25618 ft | 434 kts | 228° |
| 2026-05-04 17:37 | 44.88564 | 20.78259 | 25983 ft | 437 kts | 228° |
| 2026-05-04 17:37 | 44.86460 | 20.75164 | 26351 ft | 439 kts | 228° |
| 2026-05-04 17:38 | 44.84336 | 20.72046 | 26697 ft | 442 kts | 228° |
| 2026-05-04 17:38 | 44.82201 | 20.68918 | 27058 ft | 444 kts | 228° |
| 2026-05-04 17:38 | 44.80053 | 20.65775 | 27406 ft | 446 kts | 228° |
| 2026-05-04 17:38 | 44.77893 | 20.62621 | 27760 ft | 449 kts | 228° |
| 2026-05-04 17:39 | 44.73533 | 20.56267 | 28469 ft | 454 kts | 228° |
| 2026-05-04 17:39 | 44.71363 | 20.53111 | 28813 ft | 456 kts | 228° |
| 2026-05-04 17:39 | 44.69153 | 20.49897 | 29180 ft | 459 kts | 229° |
| 2026-05-04 17:40 | 44.66931 | 20.46663 | 29509 ft | 461 kts | 229° |
| 2026-05-04 17:40 | 44.64697 | 20.43413 | 29851 ft | 464 kts | 229° |
| 2026-05-04 17:40 | 44.62444 | 20.40145 | 30173 ft | 466 kts | 229° |
| 2026-05-04 17:40 | 44.60192 | 20.36885 | 30589 ft | 464 kts | 229° |
| 2026-05-04 17:41 | 44.57950 | 20.33641 | 31024 ft | 463 kts | 229° |
| 2026-05-04 17:41 | 44.55711 | 20.30407 | 31437 ft | 462 kts | 229° |
| 2026-05-04 17:41 | 44.53475 | 20.27179 | 31847 ft | 461 kts | 229° |
| 2026-05-04 17:41 | 44.51272 | 20.24002 | 32270 ft | 460 kts | 229° |
| 2026-05-04 17:42 | 44.49049 | 20.20798 | 32694 ft | 459 kts | 229° |
| 2026-05-04 17:42 | 44.46827 | 20.17602 | 33111 ft | 458 kts | 229° |
| 2026-05-04 17:42 | 44.44606 | 20.14411 | 33530 ft | 457 kts | 229° |
| 2026-05-04 17:42 | 44.42382 | 20.11225 | 33954 ft | 456 kts | 229° |
| 2026-05-04 17:43 | 44.40168 | 20.08056 | 34318 ft | 456 kts | 229° |
| 2026-05-04 17:43 | 44.37958 | 20.04893 | 34675 ft | 454 kts | 229° |
| 2026-05-04 17:43 | 44.35752 | 20.01741 | 35037 ft | 453 kts | 229° |
| 2026-05-04 17:43 | 44.33583 | 19.98644 | 35393 ft | 451 kts | 229° |
| 2026-05-04 17:44 | 44.31393 | 19.95522 | 35740 ft | 450 kts | 228° |
| 2026-05-04 17:44 | 44.29204 | 19.92401 | 36008 ft | 449 kts | 228° |
| 2026-05-04 17:44 | 44.24824 | 19.86152 | 36075 ft | 452 kts | 228° |
| 2026-05-04 17:45 | 44.20414 | 19.79880 | 36073 ft | 452 kts | 228° |
| 2026-05-04 17:45 | 44.16001 | 19.73638 | 36080 ft | 452 kts | 228° |
| 2026-05-04 17:46 | 44.11581 | 19.67406 | 36082 ft | 452 kts | 228° |
| 2026-05-04 17:46 | 44.07912 | 19.62229 | 36086 ft | 452 kts | 228° |
| 2026-05-04 17:47 | 44.02775 | 19.55004 | 36094 ft | 452 kts | 228° |
| 2026-05-04 17:47 | 43.98358 | 19.48816 | 36099 ft | 451 kts | 228° |
| 2026-05-04 17:48 | 43.93943 | 19.42648 | 36100 ft | 450 kts | 228° |
| 2026-05-04 17:48 | 43.90281 | 19.37523 | 36093 ft | 450 kts | 228° |
| 2026-05-04 17:49 | 43.85165 | 19.30377 | 36096 ft | 449 kts | 228° |
| 2026-05-04 17:49 | 43.80759 | 19.24244 | 36093 ft | 449 kts | 228° |
| 2026-05-04 17:50 | 43.77096 | 19.19159 | 36097 ft | 449 kts | 228° |
| 2026-05-04 17:50 | 43.72688 | 19.13054 | 36081 ft | 448 kts | 228° |
| 2026-05-04 17:51 | 43.67561 | 19.05983 | 36086 ft | 448 kts | 228° |
| 2026-05-04 17:51 | 43.63894 | 19.00919 | 36086 ft | 448 kts | 228° |
| 2026-05-04 17:52 | 43.59490 | 18.94844 | 36076 ft | 448 kts | 228° |
| 2026-05-04 17:52 | 43.55078 | 18.88789 | 36087 ft | 448 kts | 228° |
| 2026-05-04 17:53 | 43.50666 | 18.82744 | 36078 ft | 447 kts | 228° |
| 2026-05-04 17:53 | 43.46052 | 18.76994 | 36095 ft | 450 kts | 220° |
| 2026-05-04 17:54 | 43.41179 | 18.72020 | 36096 ft | 450 kts | 220° |
| 2026-05-04 17:54 | 43.36083 | 18.66828 | 36105 ft | 450 kts | 220° |
| 2026-05-04 17:55 | 43.31055 | 18.61696 | 36109 ft | 450 kts | 220° |
| 2026-05-04 17:55 | 43.26028 | 18.56572 | 36123 ft | 450 kts | 220° |
| 2026-05-04 17:56 | 43.21029 | 18.51486 | 36127 ft | 450 kts | 220° |
| 2026-05-04 17:56 | 43.15990 | 18.46382 | 36129 ft | 450 kts | 220° |
| 2026-05-04 17:57 | 43.10948 | 18.41293 | 36120 ft | 450 kts | 220° |
| 2026-05-04 17:57 | 43.05902 | 18.36208 | 36134 ft | 450 kts | 220° |
| 2026-05-04 17:58 | 43.00866 | 18.31142 | 36144 ft | 450 kts | 220° |
| 2026-05-04 17:58 | 42.95859 | 18.26117 | 36153 ft | 450 kts | 220° |
| 2026-05-04 17:59 | 42.90821 | 18.21058 | 36153 ft | 449 kts | 220° |
| 2026-05-04 18:00 | 42.83271 | 18.13493 | 36149 ft | 449 kts | 220° |
| 2026-05-04 18:00 | 42.78223 | 18.08465 | 36144 ft | 449 kts | 220° |
| 2026-05-04 18:01 | 42.73213 | 18.03485 | 36154 ft | 449 kts | 220° |
| 2026-05-04 18:01 | 42.68172 | 17.98476 | 36152 ft | 449 kts | 220° |
| 2026-05-04 18:02 | 42.60603 | 17.90980 | 36135 ft | 449 kts | 220° |
| 2026-05-04 18:02 | 42.55556 | 17.85994 | 36146 ft | 449 kts | 220° |
| 2026-05-04 18:03 | 42.50509 | 17.81020 | 36152 ft | 449 kts | 220° |
| 2026-05-04 18:03 | 42.45489 | 17.76079 | 36151 ft | 449 kts | 220° |
| 2026-05-04 18:04 | 42.40437 | 17.71112 | 36140 ft | 448 kts | 220° |
| 2026-05-04 18:05 | 42.32873 | 17.63695 | 36147 ft | 447 kts | 220° |
| 2026-05-04 18:05 | 42.27832 | 17.58775 | 36144 ft | 447 kts | 220° |
| 2026-05-04 18:06 | 42.20312 | 17.51451 | 36138 ft | 446 kts | 220° |
| 2026-05-04 18:06 | 42.15286 | 17.46557 | 36133 ft | 446 kts | 220° |
| 2026-05-04 18:07 | 42.10261 | 17.41666 | 36135 ft | 445 kts | 220° |
| 2026-05-04 18:07 | 42.05238 | 17.36801 | 36126 ft | 445 kts | 220° |
| 2026-05-04 18:08 | 42.00249 | 17.31990 | 36130 ft | 444 kts | 220° |
| 2026-05-04 18:08 | 41.95234 | 17.27160 | 36132 ft | 443 kts | 220° |
| 2026-05-04 18:09 | 41.85894 | 17.16567 | 36122 ft | 439 kts | 227° |
| 2026-05-04 18:10 | 41.81353 | 17.11169 | 36121 ft | 439 kts | 226° |
| 2026-05-04 18:10 | 41.79063 | 17.08453 | 35963 ft | 440 kts | 226° |
| 2026-05-04 18:10 | 41.76770 | 17.05746 | 35716 ft | 439 kts | 226° |
| 2026-05-04 18:11 | 41.74479 | 17.03038 | 35468 ft | 438 kts | 226° |
| 2026-05-04 18:11 | 41.72198 | 17.00344 | 35206 ft | 437 kts | 227° |
| 2026-05-04 18:11 | 41.69926 | 16.97661 | 34960 ft | 435 kts | 227° |
| 2026-05-04 18:11 | 41.67661 | 16.94994 | 34722 ft | 433 kts | 226° |
| 2026-05-04 18:12 | 41.65408 | 16.92337 | 34477 ft | 431 kts | 226° |
| 2026-05-04 18:12 | 41.63166 | 16.89698 | 34235 ft | 429 kts | 226° |
| 2026-05-04 18:12 | 41.60959 | 16.87105 | 33979 ft | 427 kts | 226° |
| 2026-05-04 18:12 | 41.58730 | 16.84487 | 33716 ft | 426 kts | 226° |
| 2026-05-04 18:13 | 41.56514 | 16.81881 | 33444 ft | 424 kts | 226° |
| 2026-05-04 18:13 | 41.54304 | 16.79281 | 33173 ft | 423 kts | 226° |
| 2026-05-04 18:13 | 41.49902 | 16.74120 | 32645 ft | 420 kts | 226° |
| 2026-05-04 18:14 | 41.47709 | 16.71554 | 32382 ft | 419 kts | 226° |
| 2026-05-04 18:14 | 41.45524 | 16.68998 | 32112 ft | 417 kts | 226° |
| 2026-05-04 18:14 | 41.43355 | 16.66467 | 31857 ft | 413 kts | 226° |
| 2026-05-04 18:15 | 41.39072 | 16.61475 | 31346 ft | 410 kts | 226° |
| 2026-05-04 18:15 | 41.34794 | 16.56496 | 30851 ft | 407 kts | 225° |
| 2026-05-04 18:15 | 41.32669 | 16.54025 | 30604 ft | 405 kts | 225° |
| 2026-05-04 18:16 | 41.30549 | 16.51561 | 30370 ft | 404 kts | 225° |
| 2026-05-04 18:16 | 41.28434 | 16.49104 | 30130 ft | 403 kts | 225° |
| 2026-05-04 18:16 | 41.26329 | 16.46666 | 29838 ft | 401 kts | 225° |
| 2026-05-04 18:17 | 41.22169 | 16.41854 | 29289 ft | 398 kts | 225° |
| 2026-05-04 18:17 | 41.20085 | 16.39443 | 29009 ft | 397 kts | 225° |
| 2026-05-04 18:17 | 41.15935 | 16.34642 | 28444 ft | 394 kts | 225° |
| 2026-05-04 18:18 | 41.13869 | 16.32259 | 28199 ft | 393 kts | 225° |
| 2026-05-04 18:18 | 41.11809 | 16.29886 | 27926 ft | 391 kts | 225° |
| 2026-05-04 18:18 | 41.09756 | 16.27522 | 27657 ft | 390 kts | 225° |
| 2026-05-04 18:18 | 41.07737 | 16.25200 | 27405 ft | 389 kts | 225° |
| 2026-05-04 18:19 | 41.03662 | 16.20522 | 26895 ft | 387 kts | 225° |
| 2026-05-04 18:19 | 41.01629 | 16.18193 | 26643 ft | 386 kts | 225° |
| 2026-05-04 18:19 | 40.99658 | 16.15806 | 26335 ft | 381 kts | 232° |
| 2026-05-04 18:20 | 40.98100 | 16.13034 | 25925 ft | 371 kts | 244° |
| 2026-05-04 18:20 | 40.97052 | 16.09959 | 25513 ft | 364 kts | 256° |
| 2026-05-04 18:20 | 40.96524 | 16.06720 | 25090 ft | 358 kts | 268° |
| 2026-05-04 18:20 | 40.96504 | 16.03502 | 24668 ft | 353 kts | 278° |
| 2026-05-04 18:21 | 40.96943 | 16.00335 | 24235 ft | 350 kts | 285° |
| 2026-05-04 18:21 | 40.97487 | 15.97198 | 23759 ft | 350 kts | 284° |
| 2026-05-04 18:21 | 40.98023 | 15.94052 | 23229 ft | 350 kts | 284° |
| 2026-05-04 18:21 | 40.98551 | 15.90921 | 22770 ft | 348 kts | 284° |
| 2026-05-04 18:22 | 40.99078 | 15.87785 | 22132 ft | 351 kts | 284° |
| 2026-05-04 18:22 | 40.99609 | 15.84618 | 21498 ft | 354 kts | 284° |
| 2026-05-04 18:22 | 41.00143 | 15.81433 | 20867 ft | 356 kts | 283° |
| 2026-05-04 18:22 | 41.00672 | 15.78264 | 20258 ft | 358 kts | 283° |
| 2026-05-04 18:23 | 41.01211 | 15.75040 | 19652 ft | 360 kts | 283° |
| 2026-05-04 18:23 | 41.01755 | 15.71800 | 19056 ft | 361 kts | 283° |
| 2026-05-04 18:23 | 41.02297 | 15.68557 | 18479 ft | 361 kts | 283° |
| 2026-05-04 18:23 | 41.02840 | 15.65307 | 17813 ft | 361 kts | 283° |
| 2026-05-04 18:24 | 41.03384 | 15.62060 | 17152 ft | 361 kts | 283° |
| 2026-05-04 18:24 | 41.03927 | 15.58809 | 16504 ft | 361 kts | 282° |
| 2026-05-04 18:24 | 41.04462 | 15.55561 | 15878 ft | 360 kts | 281° |
| 2026-05-04 18:24 | 41.04917 | 15.52361 | 15265 ft | 347 kts | 279° |
| 2026-05-04 18:25 | 41.05287 | 15.49305 | 14669 ft | 336 kts | 278° |
| 2026-05-04 18:25 | 41.05628 | 15.46256 | 14214 ft | 333 kts | 277° |
| 2026-05-04 18:25 | 41.05957 | 15.43260 | 13978 ft | 325 kts | 277° |
| 2026-05-04 18:25 | 41.06285 | 15.40323 | 13709 ft | 319 kts | 278° |
| 2026-05-04 18:26 | 41.06614 | 15.37448 | 13454 ft | 313 kts | 277° |
| 2026-05-04 18:26 | 41.06943 | 15.34610 | 13195 ft | 310 kts | 278° |
| 2026-05-04 18:26 | 41.07274 | 15.31785 | 12935 ft | 310 kts | 278° |
| 2026-05-04 18:26 | 41.07603 | 15.28975 | 12678 ft | 307 kts | 278° |
| 2026-05-04 18:27 | 41.07932 | 15.26189 | 12423 ft | 305 kts | 278° |
| 2026-05-04 18:27 | 41.08256 | 15.23455 | 12170 ft | 304 kts | 278° |
| 2026-05-04 18:27 | 41.08581 | 15.20694 | 11920 ft | 302 kts | 278° |
| 2026-05-04 18:27 | 41.08901 | 15.17949 | 11670 ft | 301 kts | 278° |
| 2026-05-04 18:28 | 41.09217 | 15.15214 | 11425 ft | 299 kts | 278° |
| 2026-05-04 18:28 | 41.09530 | 15.12496 | 11186 ft | 298 kts | 278° |
| 2026-05-04 18:28 | 41.09840 | 15.09787 | 10941 ft | 297 kts | 278° |
| 2026-05-04 18:28 | 41.10150 | 15.07089 | 10702 ft | 295 kts | 278° |
| 2026-05-04 18:29 | 41.10458 | 15.04402 | 10461 ft | 294 kts | 278° |
| 2026-05-04 18:29 | 41.10764 | 15.01730 | 10235 ft | 292 kts | 278° |
| 2026-05-04 18:29 | 41.11071 | 14.99074 | 10079 ft | 289 kts | 278° |
| 2026-05-04 18:29 | 41.11369 | 14.96506 | 9947 ft | 283 kts | 278° |
| 2026-05-04 18:30 | 41.11954 | 14.91357 | 9692 ft | 282 kts | 277° |
| 2026-05-04 18:30 | 41.12243 | 14.88819 | 9559 ft | 274 kts | 277° |
| 2026-05-04 18:30 | 41.12525 | 14.86358 | 9429 ft | 266 kts | 277° |
| 2026-05-04 18:31 | 41.12781 | 14.83972 | 9296 ft | 257 kts | 273° |
| 2026-05-04 18:31 | 41.12702 | 14.81656 | 9167 ft | 248 kts | 258° |
| 2026-05-04 18:31 | 41.12192 | 14.79518 | 9038 ft | 239 kts | 244° |
| 2026-05-04 18:31 | 41.11367 | 14.77652 | 8908 ft | 233 kts | 237° |
| 2026-05-04 18:32 | 41.10520 | 14.75859 | 8698 ft | 231 kts | 238° |
| 2026-05-04 18:32 | 41.09673 | 14.74053 | 8419 ft | 231 kts | 238° |
| 2026-05-04 18:32 | 41.08818 | 14.72225 | 8023 ft | 235 kts | 238° |
| 2026-05-04 18:32 | 41.07953 | 14.70376 | 7698 ft | 237 kts | 238° |
| 2026-05-04 18:33 | 41.07086 | 14.68519 | 7386 ft | 238 kts | 238° |
| 2026-05-04 18:33 | 41.06212 | 14.66652 | 7071 ft | 239 kts | 238° |
| 2026-05-04 18:33 | 41.05336 | 14.64787 | 6794 ft | 238 kts | 238° |
| 2026-05-04 18:33 | 41.04460 | 14.62915 | 6462 ft | 240 kts | 238° |
| 2026-05-04 18:34 | 41.03592 | 14.61055 | 6114 ft | 241 kts | 238° |
| 2026-05-04 18:34 | 41.02707 | 14.59157 | 5757 ft | 243 kts | 237° |
| 2026-05-04 18:34 | 41.01815 | 14.57246 | 5398 ft | 244 kts | 237° |
| 2026-05-04 18:34 | 41.00920 | 14.55330 | 5052 ft | 246 kts | 237° |
| 2026-05-04 18:35 | 41.00012 | 14.53386 | 4682 ft | 250 kts | 237° |
| 2026-05-04 18:35 | 40.99101 | 14.51438 | 4309 ft | 246 kts | 237° |
| 2026-05-04 18:35 | 40.98211 | 14.49537 | 3952 ft | 240 kts | 237° |
| 2026-05-04 18:35 | 40.97349 | 14.47695 | 3598 ft | 231 kts | 237° |
| 2026-05-04 18:36 | 40.96518 | 14.45921 | 3280 ft | 223 kts | 237° |
| 2026-05-04 18:36 | 40.95723 | 14.44227 | 2958 ft | 216 kts | 237° |
| 2026-05-04 18:36 | 40.94946 | 14.42569 | 2650 ft | 209 kts | 238° |
| 2026-05-04 18:36 | 40.94191 | 14.40962 | 2345 ft | 202 kts | 238° |
| 2026-05-04 18:37 | 40.93464 | 14.39414 | 2076 ft | 195 kts | 238° |
| 2026-05-04 18:37 | 40.92768 | 14.37932 | 1763 ft | 184 kts | 239° |
| 2026-05-04 18:37 | 40.92114 | 14.36542 | 1492 ft | 172 kts | 239° |
| 2026-05-04 18:37 | 40.91510 | 14.35256 | 1266 ft | 159 kts | 239° |
| 2026-05-04 18:38 | 40.90946 | 14.34056 | 1012 ft | 149 kts | 241° |
| 2026-05-04 18:38 | 40.90407 | 14.32912 | 755 ft | 144 kts | 239° |
| 2026-05-04 18:38 | 40.89878 | 14.31783 | 540 ft | 143 kts | 240° |
| 2026-05-04 18:38 | 40.89362 | 14.30687 | 361 ft | 142 kts | 241° |
| 2026-05-04 18:39 | 40.88850 | 14.29590 | 266 ft | 133 kts | 241° |
| 2026-05-04 18:39 | 40.88447 | 14.28743 | 275 ft | 70 kts | 238° |
| 2026-05-04 18:39 | 40.88287 | 14.28472 | 282 ft | 23 kts | 218° |
| 2026-05-04 18:39 | 40.88199 | 14.28395 | 289 ft | 9 kts | 207° |
| 2026-05-04 18:40 | 40.88142 | 14.28359 | 286 ft | 9 kts | 206° |
| 2026-05-04 18:40 | 40.88082 | 14.28319 | 287 ft | 10 kts | 207° |
| 2026-05-04 18:40 | 40.88067 | 14.28241 | 293 ft | 10 kts | 266° |
| 2026-05-04 18:40 | 40.88032 | 14.28160 | 293 ft | 11 kts | 235° |
| 2026-05-04 18:41 | 40.87968 | 14.28127 | 296 ft | 11 kts | 159° |
| 2026-05-04 18:41 | 40.87908 | 14.28160 | 298 ft | 8 kts | 165° |
| 2026-05-04 18:41 | 40.87888 | 14.28167 | 295 ft | 0 kts | 164° |